Terminal Aerodrome Forecast
Issued by NWS

Home | Current Version | Previous Version | Text Only | Print | Product List | Glossary On
Versions: 1 2 3 4 5 6 7 8 9 10 11 12 13 14 15 16
871
FTUS46 KPDT 270520
TAFBDN
TAF
KBDN 270520Z 2706/2806 20008KT P6SM VCSH BKN040
     FM271000 18009KT P6SM SCT050
     FM271900 24012KT P6SM -SHRASN BKN045=

USA.gov is the U.S. government's official web portal to all federal, state and local government web resources and services.